Time;durP1;ratioP1;P1;durP2;ratioP2;P2;SDS_P1;SDS_P2;PMS_P1;PMS_P2;Temp;Humidity;BMP_temperature;BMP_pressure;BME280_temperature;BME280_humidity;BME280_pressure;Samples;Min_cycle;Max_cycle;Signal;HPM_P1;HPM_P2
2022/07/01 00:00:45;;;;;;;0.90;0.50;;;;;;;16.44;nan;100558.41;5005114;28;20280;-74
2022/07/01 00:03:10;;;;;;;0.77;0.47;;;;;;;16.42;nan;100559.63;5005519;28;20029;-75
2022/07/01 00:05:35;;;;;;;0.83;0.50;;;;;;;16.35;nan;100548.88;5010505;28;20052;-75
2022/07/01 00:08:01;;;;;;;1.45;0.70;;;;;;;16.31;nan;100556.44;5006136;28;20868;-75
2022/07/01 00:10:26;;;;;;;0.70;0.40;;;;;;;16.25;nan;100551.84;4987528;28;20088;-76
2022/07/01 00:12:51;;;;;;;1.70;0.60;;;;;;;16.19;nan;100549.94;5004393;28;20038;-76
2022/07/01 00:15:17;;;;;;;2.33;0.65;;;;;;;16.12;nan;100546.38;5009562;28;20534;-76
2022/07/01 00:17:43;;;;;;;1.55;0.60;;;;;;;16.10;nan;100546.56;5004309;28;20034;-76
2022/07/01 00:20:09;;;;;;;2.03;0.70;;;;;;;16.05;nan;100546.31;5001492;28;20038;-77
2022/07/01 00:22:35;;;;;;;0.95;0.70;;;;;;;16.02;nan;100544.00;5004807;28;20062;-77
2022/07/01 00:25:00;;;;;;;0.68;0.50;;;;;;;15.98;nan;100547.25;4987327;28;20459;-76
2022/07/01 00:27:25;;;;;;;1.52;0.60;;;;;;;15.85;nan;100540.75;4990699;28;20514;-77
2022/07/01 00:29:51;;;;;;;2.50;0.70;;;;;;;15.80;nan;100553.81;5011694;28;20042;-77
2022/07/01 00:32:16;;;;;;;1.00;0.60;;;;;;;15.76;nan;100551.69;4991712;28;20104;-77
2022/07/01 00:34:41;;;;;;;0.90;0.55;;;;;;;15.71;nan;100558.41;4994333;28;20095;-77
2022/07/01 00:37:07;;;;;;;1.05;0.55;;;;;;;15.71;nan;100560.25;4989958;28;20549;-77
2022/07/01 00:39:33;;;;;;;1.75;0.70;;;;;;;15.74;nan;100559.84;5009816;28;20038;-77
2022/07/01 00:42:00;;;;;;;1.83;0.70;;;;;;;15.78;nan;100552.31;5007863;28;20061;-77
2022/07/01 00:44:26;;;;;;;0.77;0.50;;;;;;;15.77;nan;100572.00;5010190;28;20458;-77
2022/07/01 00:46:51;;;;;;;1.92;0.70;;;;;;;15.79;nan;100577.97;5007375;28;20054;-77
2022/07/01 00:49:17;;;;;;;1.75;0.80;;;;;;;15.77;nan;100570.16;4993267;28;20065;-76
2022/07/01 00:51:43;;;;;;;0.93;0.63;;;;;;;15.75;nan;100582.00;5006414;28;20034;-76
2022/07/01 00:54:09;;;;;;;1.85;0.70;;;;;;;15.77;nan;100594.16;5007359;28;20403;-76
2022/07/01 00:56:35;;;;;;;2.72;0.90;;;;;;;15.81;nan;100602.63;5007728;28;20042;-77
2022/07/01 00:59:00;;;;;;;1.88;0.70;;;;;;;15.78;nan;100587.81;5009368;28;20034;-77
2022/07/01 01:01:26;;;;;;;1.70;0.70;;;;;;;15.79;nan;100597.47;5008616;28;20515;-76
2022/07/01 01:03:52;;;;;;;1.73;0.70;;;;;;;15.84;nan;100602.25;5011375;28;20033;-76
2022/07/01 01:06:17;;;;;;;0.90;0.70;;;;;;;15.84;nan;100602.25;5010846;28;20077;-76
2022/07/01 01:08:42;;;;;;;1.45;0.60;;;;;;;15.85;nan;100596.72;5003579;28;20060;-76
2022/07/01 01:11:08;;;;;;;1.30;0.80;;;;;;;15.90;nan;100599.66;5007967;28;20045;-76
2022/07/01 01:13:33;;;;;;;2.03;0.70;;;;;;;15.95;nan;100596.44;5007997;28;20037;-76
2022/07/01 01:15:59;;;;;;;1.48;0.80;;;;;;;15.96;nan;100597.28;5008136;28;20049;-76
2022/07/01 01:18:24;;;;;;;1.70;0.60;;;;;;;15.97;nan;100605.09;5007880;28;20108;-76
2022/07/01 01:20:52;;;;;;;1.40;0.60;;;;;;;16.00;nan;100603.91;5007067;28;20034;-77
2022/07/01 01:23:18;;;;;;;2.65;0.75;;;;;;;15.94;nan;100613.44;4985641;28;20462;-77
2022/07/01 01:25:43;;;;;;;1.25;0.73;;;;;;;15.91;nan;100613.81;4990476;28;20062;-76
2022/07/01 01:28:08;;;;;;;1.30;0.70;;;;;;;15.89;nan;100610.50;5007516;28;20034;-76
2022/07/01 01:30:35;;;;;;;1.27;0.63;;;;;;;15.93;nan;100614.47;5007576;28;20425;-76
2022/07/01 01:33:00;;;;;;;1.55;0.60;;;;;;;15.93;nan;100614.47;4991930;28;20482;-76
2022/07/01 01:35:25;;;;;;;;;;;;;;;15.95;nan;100622.28;5011758;28;20112;-76
2022/07/01 01:37:51;;;;;;;1.10;0.80;;;;;;;15.93;nan;100617.97;5016062;28;20032;-76
2022/07/01 01:40:17;;;;;;;1.27;0.70;;;;;;;15.89;nan;100610.50;4990532;28;20411;-76
2022/07/01 01:42:44;;;;;;;2.13;0.85;;;;;;;15.85;nan;100596.72;5005078;28;20129;-76
2022/07/01 01:45:10;;;;;;;1.10;0.70;;;;;;;15.84;nan;100611.06;5008051;28;20116;-76
2022/07/01 01:47:36;;;;;;;0.77;0.60;;;;;;;15.81;nan;100599.94;5007313;28;20411;-76
2022/07/01 01:50:03;;;;;;;1.20;0.70;;;;;;;15.76;nan;100600.50;4989909;28;20031;-76
2022/07/01 01:52:28;;;;;;;0.93;0.75;;;;;;;15.77;nan;100604.81;5007409;28;20034;-76
2022/07/01 01:54:54;;;;;;;2.33;0.68;;;;;;;15.80;nan;100592.94;5006809;28;20111;-76
2022/07/01 01:57:19;;;;;;;1.23;0.60;;;;;;;15.83;nan;100588.09;5009216;28;20034;-76
2022/07/01 01:59:44;;;;;;;0.55;0.40;;;;;;;15.85;nan;100583.41;5008623;28;20121;-75
2022/07/01 02:02:09;;;;;;;1.17;0.70;;;;;;;15.87;nan;100576.03;4992176;28;20041;-76
2022/07/01 02:04:35;;;;;;;0.90;0.65;;;;;;;15.86;nan;100578.88;5009437;28;20030;-76
2022/07/01 02:07:00;;;;;;;1.10;0.70;;;;;;;15.87;nan;100585.88;4995211;28;20105;-76
2022/07/01 02:09:26;;;;;;;1.45;0.80;;;;;;;15.87;nan;100585.88;5008673;28;20120;-77
2022/07/01 02:11:51;;;;;;;;;;;;;;;15.82;nan;100582.94;5006209;28;20120;-76
2022/07/01 02:14:16;;;;;;;0.90;0.60;;;;;;;15.81;nan;100584.78;5007580;28;20286;-76
2022/07/01 02:16:41;;;;;;;1.23;0.80;;;;;;;15.82;nan;100581.09;5004133;28;20053;-76
2022/07/01 02:19:07;;;;;;;2.70;0.75;;;;;;;15.84;nan;100581.72;5007547;28;20292;-76
2022/07/01 02:21:32;;;;;;;1.17;0.70;;;;;;;15.85;nan;100588.72;5006891;28;20049;-76
2022/07/01 02:23:57;;;;;;;1.52;0.80;;;;;;;15.83;nan;100588.09;5005751;28;20491;-76
2022/07/01 02:26:23;;;;;;;1.38;0.70;;;;;;;15.85;nan;100582.56;5005404;28;20038;-76
2022/07/01 02:28:48;;;;;;;1.05;0.60;;;;;;;15.84;nan;100576.41;5005614;28;20037;-76
2022/07/01 02:31:13;;;;;;;1.63;0.80;;;;;;;15.80;nan;100575.13;5005956;28;20088;-76
2022/07/01 02:33:39;;;;;;;1.00;0.70;;;;;;;15.80;nan;100568.94;4992021;28;20072;-76
2022/07/01 02:36:04;;;;;;;2.47;0.93;;;;;;;15.77;nan;100564.81;5004318;28;20499;-76
2022/07/01 02:38:29;;;;;;;1.20;0.73;;;;;;;15.75;nan;100574.00;5007395;28;20034;-76
2022/07/01 02:40:55;;;;;;;0.75;0.70;;;;;;;15.70;nan;100572.72;5005837;28;20614;-76
2022/07/01 02:43:20;;;;;;;2.05;1.00;;;;;;;15.62;nan;100566.63;5005611;28;20030;-76
2022/07/01 02:45:45;;;;;;;1.10;0.80;;;;;;;15.53;nan;100560.56;5008084;28;20129;-76
2022/07/01 02:48:10;;;;;;;1.27;0.70;;;;;;;15.45;nan;100563.31;4997592;28;20685;-75
2022/07/01 02:50:36;;;;;;;1.10;0.65;;;;;;;15.36;nan;100557.25;4989196;28;20496;-76
2022/07/01 02:53:02;;;;;;;0.90;0.70;;;;;;;15.33;nan;100556.78;5007499;28;20092;-75
2022/07/01 02:55:29;;;;;;;1.20;0.60;;;;;;;15.34;nan;100563.75;4990536;28;20033;-75
2022/07/01 02:57:54;;;;;;;1.23;0.73;;;;;;;15.34;nan;100553.09;5005470;28;20026;-76
2022/07/01 03:00:22;;;;;;;0.90;0.63;;;;;;;15.35;nan;100552.94;5005608;28;20034;-76
2022/07/01 03:02:47;;;;;;;0.90;0.70;;;;;;;15.34;nan;100550.44;5004728;28;20034;-75
2022/07/01 03:05:13;;;;;;;1.85;0.73;;;;;;;15.34;nan;100543.28;5006241;28;20037;-75
2022/07/01 03:07:39;;;;;;;1.65;0.80;;;;;;;15.35;nan;100547.59;5010749;28;20076;-75
2022/07/01 03:10:05;;;;;;;1.23;0.80;;;;;;;15.35;nan;100544.94;5007549;28;20041;-75
2022/07/01 03:12:39;;;;;;;1.67;1.10;;;;;;;15.39;nan;100540.88;5007381;28;20038;-75
2022/07/01 03:15:09;;;;;;;2.53;1.30;;;;;;;15.34;nan;100553.94;5005413;28;20426;-75
2022/07/01 03:17:38;;;;;;;3.05;1.17;;;;;;;15.40;nan;100568.38;5012873;28;20382;-76
2022/07/01 03:20:04;;;;;;;2.28;1.40;;;;;;;15.44;nan;100562.47;5004966;28;20444;-76
2022/07/01 03:22:31;;;;;;;2.15;1.00;;;;;;;15.45;nan;100552.66;5005569;28;20080;-75
2022/07/01 03:24:57;;;;;;;1.98;0.98;;;;;;;15.46;nan;100560.47;4989476;28;20048;-75
2022/07/01 03:27:23;;;;;;;1.80;1.02;;;;;;;15.46;nan;100565.78;4989437;28;20038;-75
2022/07/01 03:29:48;;;;;;;2.97;1.15;;;;;;;15.45;nan;100547.34;4988769;28;20046;-75
2022/07/01 03:32:13;;;;;;;1.88;0.93;;;;;;;15.40;nan;100558.53;4989486;28;20045;-75
2022/07/01 03:34:41;;;;;;;1.30;0.82;;;;;;;15.42;nan;100569.00;5004957;28;20096;-75
2022/07/01 03:37:08;;;;;;;1.48;0.80;;;;;;;15.39;nan;100570.19;5005290;28;20050;-75
2022/07/01 03:39:34;;;;;;;1.40;0.90;;;;;;;15.33;nan;100562.94;5011504;28;20526;-75
2022/07/01 03:42:00;;;;;;;2.28;1.00;;;;;;;15.32;nan;100571.09;5005706;28;20041;-75
2022/07/01 03:44:26;;;;;;;3.95;1.17;;;;;;;15.31;nan;100569.47;4990151;28;20521;-76
2022/07/01 03:46:52;;;;;;;1.70;1.08;;;;;;;15.29;nan;100572.31;5003801;28;20034;-75
2022/07/01 03:49:18;;;;;;;1.42;0.90;;;;;;;15.28;nan;100576.81;5005087;28;20036;-75
2022/07/01 03:51:43;;;;;;;2.25;1.00;;;;;;;15.25;nan;100577.19;5005795;28;20034;-75
2022/07/01 03:56:52;;;;;;;1.80;1.10;;;;;;;15.21;nan;100572.41;5003864;28;20714;-75
2022/07/01 03:59:18;;;;;;;1.70;1.00;;;;;;;15.16;nan;100572.06;5005720;28;20352;-75
2022/07/01 04:01:43;;;;;;;2.50;0.93;;;;;;;15.15;nan;100557.94;5006381;28;20034;-75
2022/07/01 04:04:08;;;;;;;1.67;0.90;;;;;;;15.18;nan;100575.41;4993002;28;20060;-75
2022/07/01 04:06:34;;;;;;;2.58;1.42;;;;;;;15.18;nan;100575.41;5010101;28;20073;-75
2022/07/01 04:09:00;;;;;;;2.35;1.17;;;;;;;15.18;nan;100589.56;5010816;28;20041;-75
2022/07/01 04:11:25;;;;;;;1.45;0.80;;;;;;;15.12;nan;100602.78;4993385;28;20450;-75
2022/07/01 04:13:51;;;;;;;1.70;0.90;;;;;;;15.09;nan;100614.63;5012581;28;20033;-75
2022/07/01 04:16:17;;;;;;;1.77;0.80;;;;;;;15.07;nan;100617.44;5011881;28;20030;-75
2022/07/01 04:18:42;;;;;;;1.73;0.70;;;;;;;15.07;nan;100611.28;5007275;28;20398;-75
2022/07/01 04:23:52;;;;;;;2.20;1.02;;;;;;;15.01;nan;100626.13;5009528;28;20052;-74
2022/07/01 04:26:17;;;;;;;1.40;0.90;;;;;;;14.98;nan;100623.84;5009321;28;20120;-75
2022/07/01 04:28:43;;;;;;;1.00;0.80;;;;;;;14.95;nan;100620.72;5009123;28;20129;-75
2022/07/01 04:31:08;;;;;;;0.68;0.60;;;;;;;14.94;nan;100613.72;5001025;28;20073;-75
2022/07/01 04:33:33;;;;;;;2.97;0.93;;;;;;;14.96;nan;100614.38;5008782;28;20457;-75
2022/07/01 04:35:59;;;;;;;2.17;1.10;;;;;;;14.99;nan;100630.84;5008231;28;20116;-75
2022/07/01 04:38:24;;;;;;;2.25;1.00;;;;;;;15.05;nan;100638.09;5010347;28;20072;-75
2022/07/01 04:43:33;;;;;;;2.25;1.30;;;;;;;15.13;nan;100647.84;5011116;28;20126;-75
2022/07/01 04:45:58;;;;;;;3.05;1.20;;;;;;;15.20;nan;100650.63;5012544;28;20477;-75
2022/07/01 04:48:24;;;;;;;2.97;1.20;;;;;;;15.25;nan;100662.44;5010201;28;20048;-74
2022/07/01 04:50:49;;;;;;;2.50;1.23;;;;;;;15.27;nan;100651.56;5013303;28;20040;-75
2022/07/01 04:53:14;;;;;;;2.22;1.20;;;;;;;15.32;nan;100651.84;5009307;28;20044;-75
2022/07/01 04:55:39;;;;;;;1.77;1.05;;;;;;;15.42;nan;100647.13;5008068;28;20391;-75
2022/07/01 04:58:05;;;;;;;1.95;1.10;;;;;;;15.56;nan;100657.97;5009111;28;20038;-74
2022/07/01 05:00:30;;;;;;;1.73;0.90;;;;;;;15.67;nan;100662.88;5009204;28;20137;-74
2022/07/01 05:02:55;;;;;;;1.58;1.10;;;;;;;15.76;nan;100667.16;5007204;28;20038;-74
2022/07/01 05:05:21;;;;;;;1.98;1.00;;;;;;;15.86;nan;100656.22;5010293;28;20030;-75
2022/07/01 05:07:47;;;;;;;2.83;0.90;;;;;;;15.93;nan;100662.47;5007780;28;20041;-74
2022/07/01 05:10:12;;;;;;;1.50;0.88;;;;;;;16.01;nan;100665.03;5006992;28;20069;-75
2022/07/01 05:12:37;;;;;;;1.60;0.88;;;;;;;16.11;nan;100675.44;5008557;28;20041;-75
2022/07/01 05:15:03;;;;;;;2.88;1.13;;;;;;;16.11;nan;100694.09;5005741;28;20042;-74
2022/07/01 05:21:55;;;;;;;1.05;0.80;;;;;;;16.01;nan;100691.72;4994477;28;20114;-74
2022/07/01 05:22:58;;;;;;;1.90;1.10;;;;;;;15.91;nan;100686.66;5007811;28;20045;-75
2022/07/01 05:25:23;;;;;;;1.08;0.80;;;;;;;16.03;nan;100692.34;5008287;28;20034;-74
2022/07/01 05:27:48;;;;;;;1.33;0.80;;;;;;;16.17;nan;100690.72;5005428;28;20461;-75
2022/07/01 05:30:14;;;;;;;2.00;0.80;;;;;;;16.27;nan;100688.59;5010317;28;20045;-74
2022/07/01 05:32:39;;;;;;;2.13;0.90;;;;;;;16.32;nan;100702.19;5006929;28;20273;-74
2022/07/01 05:35:05;;;;;;;2.33;1.38;;;;;;;16.36;nan;100692.00;4990991;28;20060;-74
2022/07/01 05:37:30;;;;;;;2.45;1.10;;;;;;;16.39;nan;100693.47;4992410;28;20046;-75
2022/07/01 05:39:55;;;;;;;2.33;0.90;;;;;;;16.53;nan;100700.63;5008348;28;20042;-75
2022/07/01 05:42:21;;;;;;;2.13;0.95;;;;;;;16.56;nan;100706.44;5007431;28;20642;-75
2022/07/01 05:44:46;;;;;;;1.88;0.95;;;;;;;16.66;nan;100710.63;5012336;28;20045;-74
2022/07/01 05:47:11;;;;;;;1.33;0.88;;;;;;;16.75;nan;100710.31;5012454;28;20026;-74
2022/07/01 05:49:36;;;;;;;1.45;0.90;;;;;;;16.83;nan;100713.94;5002146;28;20038;-74
2022/07/01 05:52:02;;;;;;;2.17;0.90;;;;;;;16.85;nan;100717.25;5007874;28;20109;-75
2022/07/01 05:54:28;;;;;;;1.90;1.27;;;;;;;16.79;nan;100716.16;5005928;28;20297;-74
2022/07/01 05:56:53;;;;;;;1.25;0.90;;;;;;;16.80;nan;100714.31;5006639;28;20526;-76
2022/07/01 05:59:18;;;;;;;1.85;1.00;;;;;;;16.83;nan;100719.25;5007608;28;20128;-75
2022/07/01 06:01:45;;;;;;;1.45;0.80;;;;;;;16.81;nan;100708.78;5014539;28;20038;-75
2022/07/01 06:04:11;;;;;;;1.65;0.93;;;;;;;16.77;nan;100718.16;5005662;28;20100;-75
2022/07/01 06:06:36;;;;;;;2.90;1.00;;;;;;;16.75;nan;100721.00;5009035;28;20034;-75
2022/07/01 06:09:02;;;;;;;1.48;0.80;;;;;;;16.67;nan;100723.78;4985409;28;20026;-75
2022/07/01 06:11:27;;;;;;;1.15;0.77;;;;;;;16.56;nan;100713.59;5003934;28;20030;-75
2022/07/01 06:13:52;;;;;;;1.98;1.10;;;;;;;16.48;nan;100719.84;5010635;28;20356;-75
2022/07/01 06:16:18;;;;;;;3.13;1.20;;;;;;;16.48;nan;100716.38;4998425;28;20042;-75
2022/07/01 06:18:43;;;;;;;2.10;1.30;;;;;;;16.53;nan;100722.78;5008872;28;20277;-75
2022/07/01 06:21:08;;;;;;;1.83;1.10;;;;;;;16.58;nan;100722.25;5009284;28;20518;-75
2022/07/01 06:23:34;;;;;;;1.10;0.90;;;;;;;16.64;nan;100726.84;5009175;28;20089;-74
2022/07/01 06:25:59;;;;;;;1.65;0.77;;;;;;;16.51;nan;100732.81;5006366;28;20448;-75
2022/07/01 06:28:29;;;;;;;1.70;1.10;;;;;;;16.35;nan;100727.69;4990215;28;20139;-75
2022/07/01 06:30:55;;;;;;;2.30;1.27;;;;;;;16.18;nan;100737.72;5007975;28;20046;-75
2022/07/01 06:33:20;;;;;;;1.65;1.20;;;;;;;16.04;nan;100731.38;5003354;28;20034;-75
2022/07/01 06:35:46;;;;;;;3.30;1.27;;;;;;;15.95;nan;100732.47;5008873;28;20033;-75
2022/07/01 06:38:11;;;;;;;2.50;1.25;;;;;;;15.93;nan;100731.81;5006337;28;20609;-76
2022/07/01 06:40:36;;;;;;;3.95;1.33;;;;;;;15.91;nan;100736.50;5007508;28;20117;-75
2022/07/01 06:43:02;;;;;;;1.58;1.00;;;;;;;15.87;nan;100729.88;5003979;28;20038;-76
2022/07/01 06:45:27;;;;;;;2.25;1.38;;;;;;;15.85;nan;100743.41;4990608;28;20037;-77
2022/07/01 06:47:52;;;;;;;2.25;1.30;;;;;;;15.81;nan;100743.94;5010950;28;20111;-76
2022/07/01 06:50:17;;;;;;;1.77;1.10;;;;;;;15.79;nan;100741.44;5006913;28;20026;-77
2022/07/01 06:52:43;;;;;;;2.60;1.10;;;;;;;15.78;nan;100742.47;5002274;28;20618;-76
2022/07/01 06:55:08;;;;;;;2.58;1.10;;;;;;;15.71;nan;100741.53;4984783;28;20034;-77
2022/07/01 06:57:33;;;;;;;1.67;1.17;;;;;;;15.72;nan;100748.50;5003864;28;20064;-76
2022/07/01 06:59:59;;;;;;;2.35;0.93;;;;;;;15.75;nan;100748.13;5006097;28;20061;-77
2022/07/01 07:02:24;;;;;;;1.70;1.10;;;;;;;15.84;nan;100751.56;4999855;28;20423;-76
2022/07/01 07:04:49;;;;;;;2.60;1.48;;;;;;;15.92;nan;100768.34;5004900;28;20046;-76
2022/07/01 07:07:15;;;;;;;2.05;1.30;;;;;;;16.01;nan;100766.41;5007950;28;20074;-77
2022/07/01 07:09:40;;;;;;;2.00;1.50;;;;;;;16.00;nan;100769.25;5005821;28;20030;-76
2022/07/01 07:12:05;;;;;;;3.28;1.80;;;;;;;15.96;nan;100775.97;5001925;28;20033;-76
2022/07/01 07:14:31;;;;;;;2.60;1.60;;;;;;;15.92;nan;100787.00;5006493;28;20137;-78
2022/07/01 07:16:56;;;;;;;2.25;1.35;;;;;;;15.91;nan;100787.16;5003988;28;20411;-76
2022/07/01 07:19:21;;;;;;;3.00;2.07;;;;;;;15.86;nan;100793.03;5006041;28;20029;-77
2022/07/01 07:21:47;;;;;;;2.63;1.67;;;;;;;15.79;nan;100784.09;5005919;28;20289;-76
2022/07/01 07:24:12;;;;;;;2.53;1.52;;;;;;;15.77;nan;100774.63;5001751;28;20285;-77
2022/07/01 07:26:37;;;;;;;2.00;1.50;;;;;;;15.77;nan;100778.13;5006057;28;20387;-76
2022/07/01 07:29:03;;;;;;;3.33;1.70;;;;;;;15.78;nan;100784.25;5003482;28;20033;-76
2022/07/01 07:31:28;;;;;;;3.17;1.83;;;;;;;15.89;nan;100787.34;5007319;28;20049;-77
2022/07/01 07:33:53;;;;;;;2.72;1.60;;;;;;;16.03;nan;100793.72;4987711;28;20034;-76
2022/07/01 07:36:19;;;;;;;2.65;1.70;;;;;;;16.08;nan;100783.34;5002805;28;20084;-77
2022/07/01 07:38:44;;;;;;;3.03;1.70;;;;;;;16.09;nan;100774.34;5008444;28;20113;-77
2022/07/01 07:41:09;;;;;;;2.60;1.60;;;;;;;16.17;nan;100770.75;4999416;28;20112;-76
2022/07/01 07:43:34;;;;;;;2.28;1.63;;;;;;;16.18;nan;100771.56;5005421;28;20033;-77
2022/07/01 07:46:03;;;;;;;3.17;1.73;;;;;;;16.19;nan;100771.41;5006788;28;20137;-77
2022/07/01 07:48:28;;;;;;;1.85;1.35;;;;;;;16.21;nan;100763.19;5000416;28;20754;-76
2022/07/01 07:50:53;;;;;;;2.88;1.67;;;;;;;16.23;nan;100764.69;5005192;28;20049;-76
2022/07/01 07:53:18;;;;;;;2.70;1.57;;;;;;;16.27;nan;100765.97;5006135;28;20042;-77
2022/07/01 07:55:44;;;;;;;2.58;1.77;;;;;;;16.30;nan;100772.78;5003495;28;20281;-77
2022/07/01 07:58:09;;;;;;;2.60;1.77;;;;;;;16.33;nan;100764.44;4987074;28;20045;-76
2022/07/01 08:00:35;;;;;;;1.98;1.60;;;;;;;16.33;nan;100767.91;5007178;28;20030;-77
2022/07/01 08:03:00;;;;;;;2.72;1.60;;;;;;;16.38;nan;100758.53;5005763;28;20042;-76
2022/07/01 08:05:25;;;;;;;2.50;1.37;;;;;;;16.49;nan;100763.38;5006396;28;20034;-77
2022/07/01 08:07:51;;;;;;;3.53;1.58;;;;;;;16.53;nan;100767.34;5004021;28;20340;-77
2022/07/01 08:10:16;;;;;;;1.95;1.35;;;;;;;16.63;nan;100770.56;5000777;28;20095;-76
2022/07/01 08:12:42;;;;;;;2.10;1.17;;;;;;;16.77;nan;100767.03;5005596;28;20102;-77
2022/07/01 08:15:08;;;;;;;3.03;1.90;;;;;;;16.68;nan;100760.16;4998212;28;20025;-76
2022/07/01 08:17:34;;;;;;;3.67;1.80;;;;;;;16.73;nan;100764.94;5005853;28;20026;-76
2022/07/01 08:19:59;;;;;;;2.83;1.70;;;;;;;16.69;nan;100764.50;5005397;28;20831;-77
2022/07/01 08:22:25;;;;;;;2.67;1.85;;;;;;;16.66;nan;100764.03;4986670;28;20045;-76
2022/07/01 08:24:50;;;;;;;3.67;2.00;;;;;;;16.64;nan;100769.56;5003191;28;20030;-76
2022/07/01 08:27:15;;;;;;;4.28;2.60;;;;;;;16.62;nan;100778.78;5005007;28;20077;-77
2022/07/01 08:29:41;;;;;;;3.00;2.10;;;;;;;16.78;nan;100789.25;5007047;28;20066;-76
2022/07/01 08:32:07;;;;;;;3.42;1.85;;;;;;;16.96;nan;100796.91;5005362;28;20120;-77
2022/07/01 08:34:32;;;;;;;2.47;1.83;;;;;;;17.05;nan;100806.47;5005826;28;20092;-76
2022/07/01 08:36:57;;;;;;;3.08;1.98;;;;;;;17.12;nan;100806.56;5002495;28;20042;-76
2022/07/01 08:39:23;;;;;;;3.20;1.77;;;;;;;17.22;nan;100812.41;5005051;28;20096;-76
2022/07/01 08:41:48;;;;;;;2.47;1.58;;;;;;;17.27;nan;100826.03;5004882;28;20514;-75
2022/07/01 08:44:13;;;;;;;2.30;1.73;;;;;;;17.25;nan;100827.25;5007562;28;20428;-76
2022/07/01 08:46:39;;;;;;;2.83;1.83;;;;;;;17.12;nan;100826.06;5005310;28;20496;-77
2022/07/01 08:49:04;;;;;;;4.00;1.92;;;;;;;16.91;nan;100812.66;5005011;28;20040;-76
2022/07/01 08:51:29;;;;;;;2.80;1.98;;;;;;;16.81;nan;100825.47;5006110;28;20061;-78
2022/07/01 08:53:55;;;;;;;1.90;1.30;;;;;;;16.74;nan;100836.84;5009274;28;20096;-76
2022/07/01 08:59:06;;;;;;;2.50;1.98;;;;;;;16.69;nan;100835.75;5007139;28;20443;-76
2022/07/01 09:01:33;;;;;;;2.00;1.55;;;;;;;16.51;nan;100839.59;5009126;28;20038;-77
2022/07/01 09:04:15;;;;;;;2.35;1.88;;;;;;;16.47;nan;100842.81;5005332;28;20541;-76
2022/07/01 09:06:40;;;;;;;3.55;1.70;;;;;;;16.47;nan;100848.16;5012276;28;20093;-77
2022/07/01 09:09:26;;;;;;;1.70;1.45;;;;;;;16.46;nan;100851.84;5015484;28;20503;-77
2022/07/01 09:11:53;;;;;;;2.90;1.92;;;;;;;16.44;nan;100859.22;4993974;28;20568;-77
2022/07/01 09:14:29;;;;;;;2.50;1.90;;;;;;;16.31;nan;100865.19;5015582;28;20164;-75
2022/07/01 09:16:58;;;;;;;3.58;2.40;;;;;;;16.20;nan;100866.44;4999111;28;20062;-76
2022/07/01 09:19:24;;;;;;;3.38;2.40;;;;;;;16.11;nan;100855.03;5012246;28;20073;-75
2022/07/01 09:21:59;;;;;;;3.17;2.38;;;;;;;15.99;nan;100851.09;5020406;28;20041;-75
2022/07/01 09:24:35;;;;;;;4.95;3.10;;;;;;;15.83;nan;100849.41;5006340;28;20030;-74
2022/07/01 09:27:01;;;;;;;4.63;3.17;;;;;;;15.74;nan;100839.81;4989520;28;20038;-74
2022/07/01 09:29:31;;;;;;;5.53;3.65;;;;;;;15.71;nan;100840.16;5006241;28;20072;-73
2022/07/01 09:31:56;;;;;;;4.30;3.22;;;;;;;15.83;nan;100846.75;4996714;28;20022;-74
2022/07/01 09:34:22;;;;;;;5.38;3.08;;;;;;;16.01;nan;100851.75;5008270;28;20041;-75
2022/07/01 09:36:55;;;;;;;3.97;3.00;;;;;;;16.16;nan;100854.47;4998895;28;20551;-75
2022/07/01 09:39:20;;;;;;;4.30;2.67;;;;;;;16.31;nan;100860.66;5010659;28;20117;-75
2022/07/01 09:41:46;;;;;;;3.05;2.55;;;;;;;16.45;nan;100850.22;5022113;28;20172;-75
2022/07/01 09:44:11;;;;;;;2.97;2.40;;;;;;;16.63;nan;100853.34;4997550;28;20149;-75
2022/07/01 09:46:36;;;;;;;3.70;3.05;;;;;;;16.93;nan;100862.22;5010911;28;20165;-77
2022/07/01 09:49:02;;;;;;;3.38;2.53;;;;;;;17.28;nan;100859.78;5006341;28;20080;-75
2022/07/01 09:51:29;;;;;;;3.90;2.50;;;;;;;17.74;nan;100861.28;5006742;28;20058;-76
2022/07/01 09:53:56;;;;;;;3.97;2.30;;;;;;;18.42;nan;100859.88;5008485;28;20716;-74
2022/07/01 09:56:24;;;;;;;3.00;2.10;;;;;;;19.30;nan;100860.13;5009250;28;20041;-76
2022/07/01 09:58:50;;;;;;;2.80;1.90;;;;;;;19.85;nan;100868.13;5002655;28;20517;-76
2022/07/01 10:01:17;;;;;;;2.40;1.80;;;;;;;20.72;nan;100865.44;4989317;28;20038;-75
2022/07/01 10:03:42;;;;;;;1.92;1.40;;;;;;;21.80;nan;100870.16;4990334;28;20041;-74
2022/07/01 10:06:08;;;;;;;1.77;1.30;;;;;;;23.04;nan;100876.50;5001331;28;20026;-78
2022/07/01 10:08:48;;;;;;;2.42;1.45;;;;;;;24.23;nan;100873.16;5004863;28;20069;-76
2022/07/01 10:11:33;;;;;;;;;;;;;;;25.58;nan;100865.78;5006207;28;20137;-76
2022/07/01 10:13:59;;;;;;;2.83;1.35;;;;;;;26.22;nan;100870.13;5002640;28;19960;-76
2022/07/01 10:16:25;;;;;;;2.80;1.30;;;;;;;25.42;nan;100866.56;5004461;28;24194;-76
2022/07/01 10:18:50;;;;;;;2.72;1.40;;;;;;;24.25;nan;100878.34;4989581;28;20097;-76
2022/07/01 10:21:27;;;;;;;2.42;1.30;;;;;;;23.66;nan;100875.50;5006026;28;20030;-76
2022/07/01 10:23:53;;;;;;;3.63;1.40;;;;;;;23.24;nan;100884.38;5003987;28;20038;-76
2022/07/01 10:26:19;;;;;;;2.97;1.40;;;;;;;23.56;nan;100886.03;5006241;28;20040;-76
2022/07/01 10:28:48;;;;;;;3.53;1.10;;;;;;;24.25;nan;100881.06;5006764;28;20406;-77
2022/07/01 10:31:16;;;;;;;1.52;0.98;;;;;;;25.43;nan;100879.00;5004037;28;20117;-76
2022/07/01 10:33:50;;;;;;;2.08;1.00;;;;;;;26.44;nan;100881.03;5006127;28;20058;-77
2022/07/01 10:36:21;;;;;;;2.45;1.15;;;;;;;26.16;nan;100876.53;5007519;28;20121;-75
2022/07/01 10:39:03;;;;;;;;;;;;;;;26.20;nan;100883.09;5007754;28;20045;-75
2022/07/01 10:41:59;;;;;;;1.85;0.82;;;;;;;28.31;nan;100879.03;5005831;28;19924;-77
2022/07/01 10:44:25;;;;;;;1.58;0.80;;;;;;;27.72;nan;100883.44;4985319;28;20069;-78
2022/07/01 10:46:56;;;;;;;1.80;1.00;;;;;;;27.61;nan;100886.31;5007671;28;20030;-77
2022/07/01 10:49:34;;;;;;;;;;;;;;;27.18;nan;100883.38;4999065;28;20065;-75
2022/07/01 10:51:59;;;;;;;2.25;1.02;;;;;;;27.06;nan;100883.53;5006562;28;19928;-75
2022/07/01 10:54:36;;;;;;;2.13;0.98;;;;;;;26.71;nan;100877.63;4984326;28;20050;-75
2022/07/01 10:57:20;;;;;;;2.03;1.20;;;;;;;26.55;nan;100884.72;5006191;28;20030;-76
2022/07/01 10:59:50;;;;;;;1.40;0.70;;;;;;;27.62;nan;100891.47;5004058;28;20034;-75
2022/07/01 11:02:18;;;;;;;1.42;0.75;;;;;;;28.13;nan;100883.00;4988224;28;20026;-76
2022/07/01 11:04:44;;;;;;;2.00;0.90;;;;;;;29.09;nan;100878.44;4987657;28;20037;-75
2022/07/01 11:07:10;;;;;;;1.65;0.70;;;;;;;30.57;nan;100873.09;5006958;28;20554;-76
2022/07/01 11:09:35;;;;;;;1.52;0.70;;;;;;;31.17;nan;100873.16;5006641;28;20034;-76
2022/07/01 11:12:01;;;;;;;1.50;0.70;;;;;;;32.23;nan;100867.22;5005939;28;20252;-76
2022/07/01 11:14:27;;;;;;;2.55;0.70;;;;;;;32.01;nan;100872.34;5004610;28;20044;-76
2022/07/01 11:16:54;;;;;;;2.28;0.60;;;;;;;31.55;nan;100872.69;5007081;28;20026;-76
2022/07/01 11:19:19;;;;;;;1.95;0.55;;;;;;;32.65;nan;100871.16;5006359;28;20038;-75
2022/07/01 11:21:49;;;;;;;2.28;0.50;;;;;;;33.80;nan;100864.66;4989356;28;20099;-75
2022/07/01 11:24:17;;;;;;;1.63;0.70;;;;;;;31.95;nan;100875.13;5002542;28;20053;-76
2022/07/01 11:26:42;;;;;;;1.30;0.70;;;;;;;30.30;nan;100864.44;5006401;28;20041;-76
2022/07/01 11:29:10;;;;;;;1.90;0.80;;;;;;;29.17;nan;100856.94;5003610;28;20037;-75
2022/07/01 11:31:35;;;;;;;1.45;0.73;;;;;;;28.85;nan;100862.50;5007470;28;20033;-75
2022/07/01 11:34:01;;;;;;;2.50;0.90;;;;;;;28.04;nan;100862.81;4998141;28;20513;-76
2022/07/01 11:39:23;;;;;;;2.35;1.05;;;;;;;28.53;nan;100859.91;5003254;28;20033;-74
2022/07/01 11:41:54;;;;;;;1.40;0.70;;;;;;;30.32;nan;100852.16;5003701;28;20415;-75
2022/07/01 11:44:34;;;;;;;1.63;0.80;;;;;;;32.24;nan;100857.09;5005703;28;20243;-76
2022/07/01 11:47:01;;;;;;;1.23;0.60;;;;;;;34.01;nan;100857.72;4986028;28;20048;-74
2022/07/01 11:49:26;;;;;;;1.63;0.80;;;;;;;34.74;nan;100849.81;5007147;28;20040;-76
2022/07/01 11:52:05;;;;;;;1.83;0.80;;;;;;;33.81;nan;100842.44;5003811;28;20030;-76
2022/07/01 11:54:35;;;;;;;1.13;0.60;;;;;;;33.98;nan;100857.53;5000664;28;20029;-75
2022/07/01 11:57:34;;;;;;;1.73;0.60;;;;;;;35.34;nan;100853.47;5001169;28;20495;-76